sensor_id;sensor_type;location;lat;lon;timestamp;P1;durP1;ratioP1;P2;durP2;ratioP2
58242;SDS011;50118;53.232;8.252;2023-06-22T00:01:18;24.25;;;18.80;;
58242;SDS011;50118;53.232;8.252;2023-06-22T00:03:43;19.75;;;16.42;;
58242;SDS011;50118;53.232;8.252;2023-06-22T00:06:09;21.30;;;17.20;;
58242;SDS011;50118;53.232;8.252;2023-06-22T00:08:35;24.13;;;18.95;;
58242;SDS011;50118;53.232;8.252;2023-06-22T00:11:00;21.92;;;17.45;;
58242;SDS011;50118;53.232;8.252;2023-06-22T00:13:26;24.23;;;19.13;;
58242;SDS011;50118;53.232;8.252;2023-06-22T00:15:51;23.92;;;19.15;;
58242;SDS011;50118;53.232;8.252;2023-06-22T00:18:17;20.27;;;16.65;;
58242;SDS011;50118;53.232;8.252;2023-06-22T00:20:42;20.75;;;15.00;;
58242;SDS011;50118;53.232;8.252;2023-06-22T00:23:08;20.33;;;17.40;;
58242;SDS011;50118;53.232;8.252;2023-06-22T00:25:37;24.65;;;19.70;;
58242;SDS011;50118;53.232;8.252;2023-06-22T00:28:05;22.35;;;18.10;;
58242;SDS011;50118;53.232;8.252;2023-06-22T00:30:37;23.20;;;18.98;;
58242;SDS011;50118;53.232;8.252;2023-06-22T00:33:03;25.08;;;20.02;;
58242;SDS011;50118;53.232;8.252;2023-06-22T00:35:28;25.10;;;19.70;;
58242;SDS011;50118;53.232;8.252;2023-06-22T00:37:57;27.00;;;21.88;;
58242;SDS011;50118;53.232;8.252;2023-06-22T00:40:25;28.20;;;21.50;;
58242;SDS011;50118;53.232;8.252;2023-06-22T00:42:54;22.42;;;19.80;;
58242;SDS011;50118;53.232;8.252;2023-06-22T00:45:21;28.08;;;22.92;;
58242;SDS011;50118;53.232;8.252;2023-06-22T00:47:49;28.80;;;22.88;;
58242;SDS011;50118;53.232;8.252;2023-06-22T00:50:17;22.77;;;19.48;;
58242;SDS011;50118;53.232;8.252;2023-06-22T00:52:46;26.80;;;21.70;;
58242;SDS011;50118;53.232;8.252;2023-06-22T00:55:23;23.92;;;18.63;;
58242;SDS011;50118;53.232;8.252;2023-06-22T00:57:51;26.02;;;20.58;;
58242;SDS011;50118;53.232;8.252;2023-06-22T01:00:21;22.92;;;19.02;;
58242;SDS011;50118;53.232;8.252;2023-06-22T01:02:51;20.85;;;17.98;;
58242;SDS011;50118;53.232;8.252;2023-06-22T01:05:21;21.50;;;18.33;;
58242;SDS011;50118;53.232;8.252;2023-06-22T01:10:27;29.27;;;22.88;;
58242;SDS011;50118;53.232;8.252;2023-06-22T01:13:04;33.97;;;28.17;;
58242;SDS011;50118;53.232;8.252;2023-06-22T01:15:34;26.13;;;21.02;;
58242;SDS011;50118;53.232;8.252;2023-06-22T01:18:04;24.40;;;20.02;;
58242;SDS011;50118;53.232;8.252;2023-06-22T01:20:34;21.30;;;16.98;;
58242;SDS011;50118;53.232;8.252;2023-06-22T01:26:08;26.33;;;20.98;;
58242;SDS011;50118;53.232;8.252;2023-06-22T01:28:46;21.58;;;17.80;;
58242;SDS011;50118;53.232;8.252;2023-06-22T01:31:22;26.52;;;21.60;;
58242;SDS011;50118;53.232;8.252;2023-06-22T01:33:50;23.50;;;18.70;;
58242;SDS011;50118;53.232;8.252;2023-06-22T01:36:18;26.85;;;22.55;;
58242;SDS011;50118;53.232;8.252;2023-06-22T01:38:46;28.92;;;22.75;;
58242;SDS011;50118;53.232;8.252;2023-06-22T01:41:12;34.22;;;26.02;;
58242;SDS011;50118;53.232;8.252;2023-06-22T01:43:38;32.83;;;25.60;;
58242;SDS011;50118;53.232;8.252;2023-06-22T01:46:04;28.92;;;23.65;;
58242;SDS011;50118;53.232;8.252;2023-06-22T01:48:30;29.75;;;24.10;;
58242;SDS011;50118;53.232;8.252;2023-06-22T01:50:57;26.58;;;20.20;;
58242;SDS011;50118;53.232;8.252;2023-06-22T01:53:23;30.33;;;23.80;;
58242;SDS011;50118;53.232;8.252;2023-06-22T01:55:49;29.80;;;22.13;;
58242;SDS011;50118;53.232;8.252;2023-06-22T01:58:15;26.17;;;20.73;;
58242;SDS011;50118;53.232;8.252;2023-06-22T02:00:44;28.35;;;22.20;;
58242;SDS011;50118;53.232;8.252;2023-06-22T02:03:26;30.25;;;24.27;;
58242;SDS011;50118;53.232;8.252;2023-06-22T02:05:58;29.70;;;22.77;;
58242;SDS011;50118;53.232;8.252;2023-06-22T02:08:30;27.65;;;21.38;;
58242;SDS011;50118;53.232;8.252;2023-06-22T02:11:01;28.50;;;22.67;;
58242;SDS011;50118;53.232;8.252;2023-06-22T02:13:29;30.33;;;23.15;;
58242;SDS011;50118;53.232;8.252;2023-06-22T02:15:55;28.65;;;21.73;;
58242;SDS011;50118;53.232;8.252;2023-06-22T02:18:21;27.02;;;21.77;;
58242;SDS011;50118;53.232;8.252;2023-06-22T02:20:49;24.98;;;20.25;;
58242;SDS011;50118;53.232;8.252;2023-06-22T02:23:15;30.75;;;24.70;;
58242;SDS011;50118;53.232;8.252;2023-06-22T02:25:40;29.35;;;23.23;;
58242;SDS011;50118;53.232;8.252;2023-06-22T02:28:09;33.92;;;25.25;;
58242;SDS011;50118;53.232;8.252;2023-06-22T02:30:34;33.15;;;24.77;;
58242;SDS011;50118;53.232;8.252;2023-06-22T02:33:00;33.42;;;25.15;;
58242;SDS011;50118;53.232;8.252;2023-06-22T02:35:28;30.30;;;22.63;;
58242;SDS011;50118;53.232;8.252;2023-06-22T02:38:01;29.77;;;22.67;;
58242;SDS011;50118;53.232;8.252;2023-06-22T02:40:27;38.53;;;27.52;;
58242;SDS011;50118;53.232;8.252;2023-06-22T02:42:57;37.38;;;27.58;;
58242;SDS011;50118;53.232;8.252;2023-06-22T02:45:26;40.00;;;28.48;;
58242;SDS011;50118;53.232;8.252;2023-06-22T02:47:52;39.17;;;28.45;;
58242;SDS011;50118;53.232;8.252;2023-06-22T02:50:17;36.47;;;26.60;;
58242;SDS011;50118;53.232;8.252;2023-06-22T02:52:43;32.35;;;23.92;;
58242;SDS011;50118;53.232;8.252;2023-06-22T02:55:08;35.95;;;25.95;;
58242;SDS011;50118;53.232;8.252;2023-06-22T02:57:34;34.90;;;26.35;;
58242;SDS011;50118;53.232;8.252;2023-06-22T02:59:59;36.17;;;27.10;;
58242;SDS011;50118;53.232;8.252;2023-06-22T03:02:24;33.85;;;25.92;;
58242;SDS011;50118;53.232;8.252;2023-06-22T03:04:51;35.72;;;26.17;;
58242;SDS011;50118;53.232;8.252;2023-06-22T03:07:18;38.08;;;27.08;;
58242;SDS011;50118;53.232;8.252;2023-06-22T03:09:44;32.25;;;24.20;;
58242;SDS011;50118;53.232;8.252;2023-06-22T03:12:10;31.75;;;22.23;;
58242;SDS011;50118;53.232;8.252;2023-06-22T03:14:36;26.85;;;19.55;;
58242;SDS011;50118;53.232;8.252;2023-06-22T03:17:01;34.83;;;25.17;;
58242;SDS011;50118;53.232;8.252;2023-06-22T03:19:28;25.98;;;20.40;;
58242;SDS011;50118;53.232;8.252;2023-06-22T03:21:56;33.92;;;24.05;;
58242;SDS011;50118;53.232;8.252;2023-06-22T03:24:22;33.30;;;24.58;;
58242;SDS011;50118;53.232;8.252;2023-06-22T03:26:47;29.25;;;22.38;;
58242;SDS011;50118;53.232;8.252;2023-06-22T03:29:13;29.42;;;22.40;;
58242;SDS011;50118;53.232;8.252;2023-06-22T03:31:39;28.85;;;22.10;;
58242;SDS011;50118;53.232;8.252;2023-06-22T03:34:04;27.20;;;21.52;;
58242;SDS011;50118;53.232;8.252;2023-06-22T03:36:30;26.20;;;20.08;;
58242;SDS011;50118;53.232;8.252;2023-06-22T03:38:55;27.55;;;21.38;;
58242;SDS011;50118;53.232;8.252;2023-06-22T03:41:21;31.13;;;23.02;;
58242;SDS011;50118;53.232;8.252;2023-06-22T03:43:46;30.25;;;21.27;;
58242;SDS011;50118;53.232;8.252;2023-06-22T03:46:11;26.45;;;21.13;;
58242;SDS011;50118;53.232;8.252;2023-06-22T03:48:37;26.23;;;20.45;;
58242;SDS011;50118;53.232;8.252;2023-06-22T03:51:03;22.27;;;18.00;;
58242;SDS011;50118;53.232;8.252;2023-06-22T03:53:29;22.05;;;16.88;;
58242;SDS011;50118;53.232;8.252;2023-06-22T03:55:54;29.48;;;22.60;;
58242;SDS011;50118;53.232;8.252;2023-06-22T03:58:21;28.52;;;22.33;;
58242;SDS011;50118;53.232;8.252;2023-06-22T04:00:47;30.85;;;22.20;;
58242;SDS011;50118;53.232;8.252;2023-06-22T04:03:13;35.22;;;26.48;;
58242;SDS011;50118;53.232;8.252;2023-06-22T04:05:40;34.42;;;26.27;;
58242;SDS011;50118;53.232;8.252;2023-06-22T04:08:06;29.77;;;23.63;;
58242;SDS011;50118;53.232;8.252;2023-06-22T04:10:31;31.63;;;23.63;;
58242;SDS011;50118;53.232;8.252;2023-06-22T04:12:57;32.83;;;24.75;;
58242;SDS011;50118;53.232;8.252;2023-06-22T04:15:22;43.58;;;31.83;;
58242;SDS011;50118;53.232;8.252;2023-06-22T04:17:48;38.95;;;29.10;;
58242;SDS011;50118;53.232;8.252;2023-06-22T04:20:13;43.00;;;30.60;;
58242;SDS011;50118;53.232;8.252;2023-06-22T04:22:39;42.80;;;31.13;;
58242;SDS011;50118;53.232;8.252;2023-06-22T04:25:05;35.50;;;26.52;;
58242;SDS011;50118;53.232;8.252;2023-06-22T04:27:32;38.65;;;29.63;;
58242;SDS011;50118;53.232;8.252;2023-06-22T04:30:02;40.75;;;27.85;;
58242;SDS011;50118;53.232;8.252;2023-06-22T04:32:28;41.75;;;31.05;;
58242;SDS011;50118;53.232;8.252;2023-06-22T04:34:54;43.65;;;32.38;;
58242;SDS011;50118;53.232;8.252;2023-06-22T04:37:19;39.05;;;29.90;;
58242;SDS011;50118;53.232;8.252;2023-06-22T04:39:48;44.22;;;33.15;;
58242;SDS011;50118;53.232;8.252;2023-06-22T04:42:15;39.97;;;30.38;;
58242;SDS011;50118;53.232;8.252;2023-06-22T04:44:40;43.17;;;34.10;;
58242;SDS011;50118;53.232;8.252;2023-06-22T04:47:07;46.50;;;35.25;;
58242;SDS011;50118;53.232;8.252;2023-06-22T04:49:33;47.75;;;35.95;;
58242;SDS011;50118;53.232;8.252;2023-06-22T04:52:03;43.35;;;33.60;;
58242;SDS011;50118;53.232;8.252;2023-06-22T04:54:29;44.75;;;33.03;;
58242;SDS011;50118;53.232;8.252;2023-06-22T04:56:58;40.58;;;32.38;;
58242;SDS011;50118;53.232;8.252;2023-06-22T04:59:24;44.05;;;34.78;;
58242;SDS011;50118;53.232;8.252;2023-06-22T05:01:55;45.08;;;35.40;;
58242;SDS011;50118;53.232;8.252;2023-06-22T05:04:22;43.80;;;34.25;;
58242;SDS011;50118;53.232;8.252;2023-06-22T05:06:51;40.58;;;31.70;;
58242;SDS011;50118;53.232;8.252;2023-06-22T05:09:17;46.00;;;35.17;;
58242;SDS011;50118;53.232;8.252;2023-06-22T05:11:43;38.90;;;31.95;;
58242;SDS011;50118;53.232;8.252;2023-06-22T05:14:10;40.40;;;33.65;;
58242;SDS011;50118;53.232;8.252;2023-06-22T05:16:38;42.95;;;34.47;;
58242;SDS011;50118;53.232;8.252;2023-06-22T05:19:04;42.28;;;33.70;;
58242;SDS011;50118;53.232;8.252;2023-06-22T05:21:30;38.45;;;32.72;;
58242;SDS011;50118;53.232;8.252;2023-06-22T05:23:56;43.45;;;34.22;;
58242;SDS011;50118;53.232;8.252;2023-06-22T05:26:26;41.05;;;33.25;;
58242;SDS011;50118;53.232;8.252;2023-06-22T05:28:56;39.80;;;31.95;;
58242;SDS011;50118;53.232;8.252;2023-06-22T05:31:22;37.53;;;31.08;;
58242;SDS011;50118;53.232;8.252;2023-06-22T05:33:49;36.25;;;29.90;;
58242;SDS011;50118;53.232;8.252;2023-06-22T05:36:16;35.33;;;30.42;;
58242;SDS011;50118;53.232;8.252;2023-06-22T05:38:43;34.58;;;29.65;;
58242;SDS011;50118;53.232;8.252;2023-06-22T05:41:09;34.33;;;28.98;;
58242;SDS011;50118;53.232;8.252;2023-06-22T05:43:34;33.75;;;28.17;;
58242;SDS011;50118;53.232;8.252;2023-06-22T05:46:00;30.85;;;27.55;;
58242;SDS011;50118;53.232;8.252;2023-06-22T05:48:26;28.17;;;25.08;;
58242;SDS011;50118;53.232;8.252;2023-06-22T05:50:52;30.23;;;25.13;;
58242;SDS011;50118;53.232;8.252;2023-06-22T05:53:18;29.63;;;25.63;;
58242;SDS011;50118;53.232;8.252;2023-06-22T05:55:43;27.58;;;24.63;;
58242;SDS011;50118;53.232;8.252;2023-06-22T05:58:09;27.20;;;24.30;;
58242;SDS011;50118;53.232;8.252;2023-06-22T06:00:35;26.88;;;23.98;;
58242;SDS011;50118;53.232;8.252;2023-06-22T06:03:02;26.00;;;23.20;;
58242;SDS011;50118;53.232;8.252;2023-06-22T06:05:32;23.83;;;21.25;;
58242;SDS011;50118;53.232;8.252;2023-06-22T06:08:01;24.90;;;22.20;;
58242;SDS011;50118;53.232;8.252;2023-06-22T06:10:29;25.45;;;22.63;;
58242;SDS011;50118;53.232;8.252;2023-06-22T06:12:55;26.10;;;22.95;;
58242;SDS011;50118;53.232;8.252;2023-06-22T06:15:21;22.10;;;19.80;;
58242;SDS011;50118;53.232;8.252;2023-06-22T06:17:47;22.15;;;19.75;;
58242;SDS011;50118;53.232;8.252;2023-06-22T06:20:12;21.90;;;18.20;;
58242;SDS011;50118;53.232;8.252;2023-06-22T06:22:38;21.52;;;19.23;;
58242;SDS011;50118;53.232;8.252;2023-06-22T06:25:04;21.77;;;18.60;;
58242;SDS011;50118;53.232;8.252;2023-06-22T06:27:30;20.00;;;17.67;;
58242;SDS011;50118;53.232;8.252;2023-06-22T06:29:56;16.83;;;15.02;;
58242;SDS011;50118;53.232;8.252;2023-06-22T06:32:21;21.08;;;15.45;;
58242;SDS011;50118;53.232;8.252;2023-06-22T06:34:47;16.48;;;14.65;;
58242;SDS011;50118;53.232;8.252;2023-06-22T06:37:12;13.73;;;11.90;;
58242;SDS011;50118;53.232;8.252;2023-06-22T06:39:38;14.90;;;12.63;;
58242;SDS011;50118;53.232;8.252;2023-06-22T06:42:04;13.75;;;12.07;;
58242;SDS011;50118;53.232;8.252;2023-06-22T06:44:30;12.70;;;11.18;;
58242;SDS011;50118;53.232;8.252;2023-06-22T06:46:55;10.98;;;9.43;;
58242;SDS011;50118;53.232;8.252;2023-06-22T06:49:21;10.77;;;9.43;;
58242;SDS011;50118;53.232;8.252;2023-06-22T06:51:46;10.38;;;8.05;;
58242;SDS011;50118;53.232;8.252;2023-06-22T06:54:12;9.82;;;7.95;;
58242;SDS011;50118;53.232;8.252;2023-06-22T06:56:37;10.55;;;8.00;;
58242;SDS011;50118;53.232;8.252;2023-06-22T06:59:03;9.23;;;8.25;;
58242;SDS011;50118;53.232;8.252;2023-06-22T07:01:28;10.60;;;7.95;;
58242;SDS011;50118;53.232;8.252;2023-06-22T07:03:58;13.77;;;8.73;;
58242;SDS011;50118;53.232;8.252;2023-06-22T07:06:24;9.95;;;8.10;;
58242;SDS011;50118;53.232;8.252;2023-06-22T07:08:54;9.15;;;7.93;;
58242;SDS011;50118;53.232;8.252;2023-06-22T07:11:20;11.32;;;7.47;;
58242;SDS011;50118;53.232;8.252;2023-06-22T07:13:45;9.23;;;6.70;;
58242;SDS011;50118;53.232;8.252;2023-06-22T07:16:11;9.07;;;7.13;;
58242;SDS011;50118;53.232;8.252;2023-06-22T07:18:36;8.93;;;6.53;;
58242;SDS011;50118;53.232;8.252;2023-06-22T07:21:01;9.85;;;6.40;;
58242;SDS011;50118;53.232;8.252;2023-06-22T07:23:28;7.32;;;6.05;;
58242;SDS011;50118;53.232;8.252;2023-06-22T07:25:54;8.07;;;5.90;;
58242;SDS011;50118;53.232;8.252;2023-06-22T07:28:19;8.27;;;5.68;;
58242;SDS011;50118;53.232;8.252;2023-06-22T07:30:45;8.25;;;6.20;;
58242;SDS011;50118;53.232;8.252;2023-06-22T07:33:11;24.33;;;22.23;;
58242;SDS011;50118;53.232;8.252;2023-06-22T07:35:36;8.18;;;5.40;;
58242;SDS011;50118;53.232;8.252;2023-06-22T07:38:02;6.70;;;5.20;;
58242;SDS011;50118;53.232;8.252;2023-06-22T07:40:28;6.55;;;5.30;;
58242;SDS011;50118;53.232;8.252;2023-06-22T07:42:54;8.18;;;5.40;;
58242;SDS011;50118;53.232;8.252;2023-06-22T07:45:20;7.20;;;5.45;;
58242;SDS011;50118;53.232;8.252;2023-06-22T07:47:45;7.07;;;4.82;;
58242;SDS011;50118;53.232;8.252;2023-06-22T07:50:10;6.55;;;5.10;;
58242;SDS011;50118;53.232;8.252;2023-06-22T07:52:36;7.97;;;4.82;;
58242;SDS011;50118;53.232;8.252;2023-06-22T07:55:01;6.18;;;4.85;;
58242;SDS011;50118;53.232;8.252;2023-06-22T07:57:27;6.47;;;4.97;;
58242;SDS011;50118;53.232;8.252;2023-06-22T07:59:59;8.45;;;4.80;;
58242;SDS011;50118;53.232;8.252;2023-06-22T08:02:25;7.53;;;4.75;;
58242;SDS011;50118;53.232;8.252;2023-06-22T08:04:51;5.40;;;4.45;;
58242;SDS011;50118;53.232;8.252;2023-06-22T08:07:17;5.50;;;3.78;;
58242;SDS011;50118;53.232;8.252;2023-06-22T08:09:47;6.47;;;4.78;;
58242;SDS011;50118;53.232;8.252;2023-06-22T08:12:14;6.88;;;4.13;;
58242;SDS011;50118;53.232;8.252;2023-06-22T08:14:41;8.13;;;4.57;;
58242;SDS011;50118;53.232;8.252;2023-06-22T08:17:09;6.18;;;3.15;;
58242;SDS011;50118;53.232;8.252;2023-06-22T08:19:34;6.95;;;5.40;;
58242;SDS011;50118;53.232;8.252;2023-06-22T08:22:00;8.70;;;5.65;;
58242;SDS011;50118;53.232;8.252;2023-06-22T08:24:25;6.72;;;5.10;;
58242;SDS011;50118;53.232;8.252;2023-06-22T08:26:55;5.57;;;4.10;;
58242;SDS011;50118;53.232;8.252;2023-06-22T08:29:21;6.53;;;4.90;;
58242;SDS011;50118;53.232;8.252;2023-06-22T08:31:46;6.43;;;4.88;;
58242;SDS011;50118;53.232;8.252;2023-06-22T08:34:12;5.50;;;3.95;;
58242;SDS011;50118;53.232;8.252;2023-06-22T08:36:37;6.53;;;5.25;;
58242;SDS011;50118;53.232;8.252;2023-06-22T08:39:06;6.60;;;4.70;;
58242;SDS011;50118;53.232;8.252;2023-06-22T08:41:31;6.20;;;4.53;;
58242;SDS011;50118;53.232;8.252;2023-06-22T08:43:57;7.18;;;5.22;;
58242;SDS011;50118;53.232;8.252;2023-06-22T08:46:22;7.65;;;4.60;;
58242;SDS011;50118;53.232;8.252;2023-06-22T08:48:56;7.55;;;4.88;;
58242;SDS011;50118;53.232;8.252;2023-06-22T08:51:24;8.05;;;5.20;;
58242;SDS011;50118;53.232;8.252;2023-06-22T08:53:50;5.28;;;4.40;;
58242;SDS011;50118;53.232;8.252;2023-06-22T08:56:15;8.52;;;5.32;;
58242;SDS011;50118;53.232;8.252;2023-06-22T08:58:41;8.18;;;5.25;;
58242;SDS011;50118;53.232;8.252;2023-06-22T09:01:06;6.72;;;5.30;;
58242;SDS011;50118;53.232;8.252;2023-06-22T09:03:32;6.43;;;4.40;;
58242;SDS011;50118;53.232;8.252;2023-06-22T09:05:58;7.60;;;5.20;;
58242;SDS011;50118;53.232;8.252;2023-06-22T09:08:23;7.07;;;5.40;;
58242;SDS011;50118;53.232;8.252;2023-06-22T09:10:49;7.82;;;5.50;;
58242;SDS011;50118;53.232;8.252;2023-06-22T09:13:15;7.82;;;5.65;;
58242;SDS011;50118;53.232;8.252;2023-06-22T09:15:41;5.80;;;4.90;;
58242;SDS011;50118;53.232;8.252;2023-06-22T09:18:06;7.25;;;5.30;;
58242;SDS011;50118;53.232;8.252;2023-06-22T09:20:35;6.57;;;5.00;;
58242;SDS011;50118;53.232;8.252;2023-06-22T09:23:00;6.35;;;4.70;;
58242;SDS011;50118;53.232;8.252;2023-06-22T09:25:26;6.63;;;3.92;;
58242;SDS011;50118;53.232;8.252;2023-06-22T09:27:51;7.90;;;4.40;;
58242;SDS011;50118;53.232;8.252;2023-06-22T09:30:17;6.90;;;4.78;;
58242;SDS011;50118;53.232;8.252;2023-06-22T09:32:42;8.85;;;5.10;;
58242;SDS011;50118;53.232;8.252;2023-06-22T09:35:08;7.93;;;4.35;;
58242;SDS011;50118;53.232;8.252;2023-06-22T09:37:34;5.80;;;4.70;;
58242;SDS011;50118;53.232;8.252;2023-06-22T09:40:00;5.85;;;4.30;;
58242;SDS011;50118;53.232;8.252;2023-06-22T09:42:26;6.68;;;5.00;;
58242;SDS011;50118;53.232;8.252;2023-06-22T09:44:51;6.88;;;4.90;;
58242;SDS011;50118;53.232;8.252;2023-06-22T09:47:17;7.15;;;4.75;;
58242;SDS011;50118;53.232;8.252;2023-06-22T09:49:42;7.18;;;4.80;;
58242;SDS011;50118;53.232;8.252;2023-06-22T09:52:07;5.60;;;4.70;;
58242;SDS011;50118;53.232;8.252;2023-06-22T09:54:33;6.32;;;4.53;;
58242;SDS011;50118;53.232;8.252;2023-06-22T09:56:58;7.80;;;5.05;;
58242;SDS011;50118;53.232;8.252;2023-06-22T09:59:24;7.63;;;4.90;;
58242;SDS011;50118;53.232;8.252;2023-06-22T10:01:49;6.93;;;4.53;;
58242;SDS011;50118;53.232;8.252;2023-06-22T10:04:14;6.63;;;4.70;;
58242;SDS011;50118;53.232;8.252;2023-06-22T10:06:40;7.78;;;5.68;;
58242;SDS011;50118;53.232;8.252;2023-06-22T10:09:06;8.23;;;5.82;;
58242;SDS011;50118;53.232;8.252;2023-06-22T10:11:32;7.03;;;5.57;;
58242;SDS011;50118;53.232;8.252;2023-06-22T10:13:59;9.32;;;6.32;;
58242;SDS011;50118;53.232;8.252;2023-06-22T10:16:30;7.75;;;6.13;;
58242;SDS011;50118;53.232;8.252;2023-06-22T10:18:56;6.67;;;5.20;;
58242;SDS011;50118;53.232;8.252;2023-06-22T10:21:21;7.57;;;6.00;;
58242;SDS011;50118;53.232;8.252;2023-06-22T10:23:47;7.88;;;5.70;;
58242;SDS011;50118;53.232;8.252;2023-06-22T10:26:12;8.05;;;5.78;;
58242;SDS011;50118;53.232;8.252;2023-06-22T10:28:37;8.13;;;6.20;;
58242;SDS011;50118;53.232;8.252;2023-06-22T10:31:03;6.93;;;5.22;;
58242;SDS011;50118;53.232;8.252;2023-06-22T10:33:28;8.65;;;6.45;;
58242;SDS011;50118;53.232;8.252;2023-06-22T10:35:53;9.25;;;6.82;;
58242;SDS011;50118;53.232;8.252;2023-06-22T10:38:19;8.30;;;7.40;;
58242;SDS011;50118;53.232;8.252;2023-06-22T10:40:45;8.85;;;7.30;;
58242;SDS011;50118;53.232;8.252;2023-06-22T10:43:10;9.40;;;7.68;;
58242;SDS011;50118;53.232;8.252;2023-06-22T10:45:36;9.30;;;7.00;;
58242;SDS011;50118;53.232;8.252;2023-06-22T10:48:01;7.85;;;6.82;;
58242;SDS011;50118;53.232;8.252;2023-06-22T10:50:27;9.48;;;7.53;;
58242;SDS011;50118;53.232;8.252;2023-06-22T10:52:53;9.35;;;7.47;;
58242;SDS011;50118;53.232;8.252;2023-06-22T10:55:19;8.65;;;7.05;;
58242;SDS011;50118;53.232;8.252;2023-06-22T10:57:44;6.93;;;5.97;;
58242;SDS011;50118;53.232;8.252;2023-06-22T11:00:12;8.98;;;6.18;;
58242;SDS011;50118;53.232;8.252;2023-06-22T11:02:38;8.70;;;7.07;;
58242;SDS011;50118;53.232;8.252;2023-06-22T11:05:04;9.20;;;7.53;;
58242;SDS011;50118;53.232;8.252;2023-06-22T11:07:30;8.88;;;7.57;;
58242;SDS011;50118;53.232;8.252;2023-06-22T11:09:56;8.82;;;6.05;;
58242;SDS011;50118;53.232;8.252;2023-06-22T11:12:21;9.20;;;6.68;;
58242;SDS011;50118;53.232;8.252;2023-06-22T11:14:47;8.10;;;5.97;;
58242;SDS011;50118;53.232;8.252;2023-06-22T11:17:12;7.55;;;6.20;;
58242;SDS011;50118;53.232;8.252;2023-06-22T11:19:38;9.75;;;6.10;;
58242;SDS011;50118;53.232;8.252;2023-06-22T11:22:03;7.25;;;5.30;;
58242;SDS011;50118;53.232;8.252;2023-06-22T11:24:29;6.70;;;5.40;;
58242;SDS011;50118;53.232;8.252;2023-06-22T11:26:54;7.13;;;4.88;;
58242;SDS011;50118;53.232;8.252;2023-06-22T11:29:19;9.35;;;5.30;;
58242;SDS011;50118;53.232;8.252;2023-06-22T11:31:45;6.68;;;4.82;;
58242;SDS011;50118;53.232;8.252;2023-06-22T11:34:10;5.50;;;4.32;;
58242;SDS011;50118;53.232;8.252;2023-06-22T11:36:36;5.85;;;4.25;;
58242;SDS011;50118;53.232;8.252;2023-06-22T11:39:01;7.00;;;5.07;;
58242;SDS011;50118;53.232;8.252;2023-06-22T11:41:27;5.90;;;4.35;;
58242;SDS011;50118;53.232;8.252;2023-06-22T11:43:52;7.05;;;5.00;;
58242;SDS011;50118;53.232;8.252;2023-06-22T11:46:18;7.60;;;4.70;;
58242;SDS011;50118;53.232;8.252;2023-06-22T11:48:43;8.95;;;5.00;;
58242;SDS011;50118;53.232;8.252;2023-06-22T11:51:09;5.15;;;4.10;;
58242;SDS011;50118;53.232;8.252;2023-06-22T11:53:34;6.68;;;5.20;;
58242;SDS011;50118;53.232;8.252;2023-06-22T11:56:00;5.15;;;4.25;;
58242;SDS011;50118;53.232;8.252;2023-06-22T11:58:26;6.93;;;4.68;;
58242;SDS011;50118;53.232;8.252;2023-06-22T12:00:52;6.15;;;4.88;;
58242;SDS011;50118;53.232;8.252;2023-06-22T12:03:18;6.38;;;5.10;;
58242;SDS011;50118;53.232;8.252;2023-06-22T12:05:44;6.88;;;4.65;;
58242;SDS011;50118;53.232;8.252;2023-06-22T12:08:09;6.57;;;4.68;;
58242;SDS011;50118;53.232;8.252;2023-06-22T12:10:35;5.63;;;4.57;;
58242;SDS011;50118;53.232;8.252;2023-06-22T12:13:00;7.03;;;4.95;;
58242;SDS011;50118;53.232;8.252;2023-06-22T12:15:26;7.13;;;4.93;;
58242;SDS011;50118;53.232;8.252;2023-06-22T12:17:52;6.72;;;5.40;;
58242;SDS011;50118;53.232;8.252;2023-06-22T12:20:17;6.43;;;4.47;;
58242;SDS011;50118;53.232;8.252;2023-06-22T12:22:43;6.95;;;4.63;;
58242;SDS011;50118;53.232;8.252;2023-06-22T12:25:10;7.13;;;5.13;;
58242;SDS011;50118;53.232;8.252;2023-06-22T12:27:36;6.50;;;4.85;;
58242;SDS011;50118;53.232;8.252;2023-06-22T12:30:03;5.57;;;4.80;;
58242;SDS011;50118;53.232;8.252;2023-06-22T12:32:29;9.25;;;5.72;;
58242;SDS011;50118;53.232;8.252;2023-06-22T12:34:55;5.95;;;5.00;;
58242;SDS011;50118;53.232;8.252;2023-06-22T12:37:21;6.80;;;5.15;;
58242;SDS011;50118;53.232;8.252;2023-06-22T12:39:47;7.72;;;5.35;;
58242;SDS011;50118;53.232;8.252;2023-06-22T12:42:12;6.25;;;4.50;;
58242;SDS011;50118;53.232;8.252;2023-06-22T12:44:38;6.35;;;4.90;;
58242;SDS011;50118;53.232;8.252;2023-06-22T12:47:04;5.53;;;4.50;;
58242;SDS011;50118;53.232;8.252;2023-06-22T12:49:30;7.50;;;5.47;;
58242;SDS011;50118;53.232;8.252;2023-06-22T12:51:56;7.18;;;5.25;;
58242;SDS011;50118;53.232;8.252;2023-06-22T12:54:21;7.20;;;5.18;;
58242;SDS011;50118;53.232;8.252;2023-06-22T12:56:46;6.55;;;5.43;;
58242;SDS011;50118;53.232;8.252;2023-06-22T12:59:12;6.43;;;5.00;;
58242;SDS011;50118;53.232;8.252;2023-06-22T13:01:37;6.25;;;5.00;;
58242;SDS011;50118;53.232;8.252;2023-06-22T13:04:03;8.63;;;5.90;;
58242;SDS011;50118;53.232;8.252;2023-06-22T13:06:29;6.63;;;5.70;;
58242;SDS011;50118;53.232;8.252;2023-06-22T13:08:54;6.78;;;5.18;;
58242;SDS011;50118;53.232;8.252;2023-06-22T13:11:20;8.45;;;5.95;;
58242;SDS011;50118;53.232;8.252;2023-06-22T13:13:45;9.52;;;5.90;;
58242;SDS011;50118;53.232;8.252;2023-06-22T13:16:11;7.53;;;5.63;;
58242;SDS011;50118;53.232;8.252;2023-06-22T13:18:37;6.70;;;5.90;;
58242;SDS011;50118;53.232;8.252;2023-06-22T13:21:03;8.85;;;5.75;;
58242;SDS011;50118;53.232;8.252;2023-06-22T13:23:29;6.25;;;5.00;;
58242;SDS011;50118;53.232;8.252;2023-06-22T13:25:55;7.68;;;5.78;;
58242;SDS011;50118;53.232;8.252;2023-06-22T13:28:20;8.80;;;6.13;;
58242;SDS011;50118;53.232;8.252;2023-06-22T13:30:46;10.30;;;6.95;;
58242;SDS011;50118;53.232;8.252;2023-06-22T13:33:12;8.95;;;7.28;;
58242;SDS011;50118;53.232;8.252;2023-06-22T13:35:38;9.25;;;6.47;;
58242;SDS011;50118;53.232;8.252;2023-06-22T13:38:04;8.45;;;6.32;;
58242;SDS011;50118;53.232;8.252;2023-06-22T13:40:30;8.23;;;5.97;;
58242;SDS011;50118;53.232;8.252;2023-06-22T13:42:55;9.57;;;6.93;;
58242;SDS011;50118;53.232;8.252;2023-06-22T13:45:21;9.15;;;6.90;;
58242;SDS011;50118;53.232;8.252;2023-06-22T13:47:47;9.73;;;6.53;;
58242;SDS011;50118;53.232;8.252;2023-06-22T13:50:13;10.30;;;7.35;;
58242;SDS011;50118;53.232;8.252;2023-06-22T13:52:38;11.50;;;7.85;;
58242;SDS011;50118;53.232;8.252;2023-06-22T13:55:04;10.52;;;7.18;;
58242;SDS011;50118;53.232;8.252;2023-06-22T13:57:31;10.93;;;7.80;;
58242;SDS011;50118;53.232;8.252;2023-06-22T13:59:58;10.95;;;8.20;;
58242;SDS011;50118;53.232;8.252;2023-06-22T14:02:25;10.65;;;7.97;;
58242;SDS011;50118;53.232;8.252;2023-06-22T14:04:51;10.48;;;8.00;;
58242;SDS011;50118;53.232;8.252;2023-06-22T14:07:16;10.50;;;8.02;;
58242;SDS011;50118;53.232;8.252;2023-06-22T14:09:42;11.00;;;7.32;;
58242;SDS011;50118;53.232;8.252;2023-06-22T14:12:07;10.43;;;7.00;;
58242;SDS011;50118;53.232;8.252;2023-06-22T14:14:33;9.27;;;6.60;;
58242;SDS011;50118;53.232;8.252;2023-06-22T14:16:59;9.63;;;7.15;;
58242;SDS011;50118;53.232;8.252;2023-06-22T14:19:25;10.65;;;7.28;;
58242;SDS011;50118;53.232;8.252;2023-06-22T14:21:50;11.13;;;7.55;;
58242;SDS011;50118;53.232;8.252;2023-06-22T14:24:16;10.05;;;7.40;;
58242;SDS011;50118;53.232;8.252;2023-06-22T14:26:42;9.45;;;7.00;;
58242;SDS011;50118;53.232;8.252;2023-06-22T14:29:07;11.65;;;7.55;;
58242;SDS011;50118;53.232;8.252;2023-06-22T14:31:33;9.55;;;7.13;;
58242;SDS011;50118;53.232;8.252;2023-06-22T14:33:58;9.60;;;7.32;;
58242;SDS011;50118;53.232;8.252;2023-06-22T14:36:24;8.20;;;6.88;;